sensor_id;sensor_type;location;lat;lon;timestamp;temperature;humidity
51841;DHT22;37888;53.246;6.658;2024-03-02T00:00:09;6.80;99.90
51841;DHT22;37888;53.246;6.658;2024-03-02T00:02:43;6.80;99.90
51841;DHT22;37888;53.246;6.658;2024-03-02T00:05:19;6.70;99.90
51841;DHT22;37888;53.246;6.658;2024-03-02T00:07:46;6.70;99.90
51841;DHT22;37888;53.246;6.658;2024-03-02T00:10:18;6.60;99.90
51841;DHT22;37888;53.246;6.658;2024-03-02T00:12:45;7.00;99.90
51841;DHT22;37888;53.246;6.658;2024-03-02T00:17:53;6.80;99.90
51841;DHT22;37888;53.246;6.658;2024-03-02T00:20:20;6.80;99.90
51841;DHT22;37888;53.246;6.658;2024-03-02T00:22:46;6.90;99.90
51841;DHT22;37888;53.246;6.658;2024-03-02T00:25:12;6.70;99.90
51841;DHT22;37888;53.246;6.658;2024-03-02T00:27:38;6.90;99.90
51841;DHT22;37888;53.246;6.658;2024-03-02T00:32:47;6.70;99.90
51841;DHT22;37888;53.246;6.658;2024-03-02T00:35:13;7.10;99.90
51841;DHT22;37888;53.246;6.658;2024-03-02T00:37:39;6.90;99.90
51841;DHT22;37888;53.246;6.658;2024-03-02T00:40:05;6.70;99.90
51841;DHT22;37888;53.246;6.658;2024-03-02T00:49:49;6.80;99.90
51841;DHT22;37888;53.246;6.658;2024-03-02T00:52:15;6.70;99.90
51841;DHT22;37888;53.246;6.658;2024-03-02T00:54:40;6.70;99.90
51841;DHT22;37888;53.246;6.658;2024-03-02T00:57:07;6.80;99.90
51841;DHT22;37888;53.246;6.658;2024-03-02T00:59:35;6.50;99.90
51841;DHT22;37888;53.246;6.658;2024-03-02T01:02:01;6.70;99.90
51841;DHT22;37888;53.246;6.658;2024-03-02T01:04:27;6.60;99.90
51841;DHT22;37888;53.246;6.658;2024-03-02T01:06:52;6.50;99.90
51841;DHT22;37888;53.246;6.658;2024-03-02T01:09:18;6.90;99.90
51841;DHT22;37888;53.246;6.658;2024-03-02T01:11:44;6.80;99.90
51841;DHT22;37888;53.246;6.658;2024-03-02T01:14:10;6.70;99.90
51841;DHT22;37888;53.246;6.658;2024-03-02T01:16:35;6.50;99.90
51841;DHT22;37888;53.246;6.658;2024-03-02T01:19:01;6.90;99.90
51841;DHT22;37888;53.246;6.658;2024-03-02T01:21:27;6.90;99.90
51841;DHT22;37888;53.246;6.658;2024-03-02T01:23:53;6.80;99.90
51841;DHT22;37888;53.246;6.658;2024-03-02T01:26:18;7.00;99.90
51841;DHT22;37888;53.246;6.658;2024-03-02T01:28:44;6.90;99.90
51841;DHT22;37888;53.246;6.658;2024-03-02T01:31:10;6.80;99.90
51841;DHT22;37888;53.246;6.658;2024-03-02T01:33:36;7.20;99.90
51841;DHT22;37888;53.246;6.658;2024-03-02T01:36:02;7.00;99.90
51841;DHT22;37888;53.246;6.658;2024-03-02T01:38:27;7.10;99.90
51841;DHT22;37888;53.246;6.658;2024-03-02T01:40:54;6.90;99.90
51841;DHT22;37888;53.246;6.658;2024-03-02T01:43:22;7.00;99.90
51841;DHT22;37888;53.246;6.658;2024-03-02T01:45:47;7.30;99.90
51841;DHT22;37888;53.246;6.658;2024-03-02T01:48:13;7.10;99.90
51841;DHT22;37888;53.246;6.658;2024-03-02T01:50:39;7.10;99.90
51841;DHT22;37888;53.246;6.658;2024-03-02T01:53:04;7.10;99.90
51841;DHT22;37888;53.246;6.658;2024-03-02T01:55:30;7.40;99.90
51841;DHT22;37888;53.246;6.658;2024-03-02T01:57:56;7.20;99.90
51841;DHT22;37888;53.246;6.658;2024-03-02T02:00:22;7.20;99.90
51841;DHT22;37888;53.246;6.658;2024-03-02T02:02:48;7.20;99.90
51841;DHT22;37888;53.246;6.658;2024-03-02T02:05:13;7.30;99.90
51841;DHT22;37888;53.246;6.658;2024-03-02T02:07:40;7.00;99.90
51841;DHT22;37888;53.246;6.658;2024-03-02T02:10:05;7.10;99.90
51841;DHT22;37888;53.246;6.658;2024-03-02T02:12:32;7.00;99.90
51841;DHT22;37888;53.246;6.658;2024-03-02T02:14:57;7.10;99.90
51841;DHT22;37888;53.246;6.658;2024-03-02T02:17:23;7.30;99.90
51841;DHT22;37888;53.246;6.658;2024-03-02T02:19:49;7.10;99.90
51841;DHT22;37888;53.246;6.658;2024-03-02T02:22:14;7.10;99.90
51841;DHT22;37888;53.246;6.658;2024-03-02T02:24:43;7.10;99.90
51841;DHT22;37888;53.246;6.658;2024-03-02T02:27:08;7.20;99.90
51841;DHT22;37888;53.246;6.658;2024-03-02T02:29:35;7.20;99.90
51841;DHT22;37888;53.246;6.658;2024-03-02T02:32:01;7.30;99.90
51841;DHT22;37888;53.246;6.658;2024-03-02T02:34:27;7.20;99.90
51841;DHT22;37888;53.246;6.658;2024-03-02T02:36:52;7.00;99.90
51841;DHT22;37888;53.246;6.658;2024-03-02T02:39:19;7.00;99.90
51841;DHT22;37888;53.246;6.658;2024-03-02T02:41:45;7.10;99.90
51841;DHT22;37888;53.246;6.658;2024-03-02T02:44:11;7.20;99.90
51841;DHT22;37888;53.246;6.658;2024-03-02T02:46:40;7.10;99.90
51841;DHT22;37888;53.246;6.658;2024-03-02T02:49:05;7.10;99.90
51841;DHT22;37888;53.246;6.658;2024-03-02T02:51:31;7.20;99.90
51841;DHT22;37888;53.246;6.658;2024-03-02T02:53:56;7.10;99.90
51841;DHT22;37888;53.246;6.658;2024-03-02T02:56:22;7.10;99.90
51841;DHT22;37888;53.246;6.658;2024-03-02T02:58:47;7.20;99.90
51841;DHT22;37888;53.246;6.658;2024-03-02T03:01:14;7.20;99.90
51841;DHT22;37888;53.246;6.658;2024-03-02T03:03:40;7.40;99.90
51841;DHT22;37888;53.246;6.658;2024-03-02T03:06:06;7.30;99.90
51841;DHT22;37888;53.246;6.658;2024-03-02T03:08:31;7.30;99.90
51841;DHT22;37888;53.246;6.658;2024-03-02T03:10:57;7.30;99.90
51841;DHT22;37888;53.246;6.658;2024-03-02T03:13:23;7.50;99.90
51841;DHT22;37888;53.246;6.658;2024-03-02T03:15:48;7.40;99.90
51841;DHT22;37888;53.246;6.658;2024-03-02T03:18:14;7.40;99.90
51841;DHT22;37888;53.246;6.658;2024-03-02T03:20:39;7.40;99.90
51841;DHT22;37888;53.246;6.658;2024-03-02T03:23:05;7.30;99.90
51841;DHT22;37888;53.246;6.658;2024-03-02T03:25:30;7.40;99.90
51841;DHT22;37888;53.246;6.658;2024-03-02T03:27:56;7.50;99.90
51841;DHT22;37888;53.246;6.658;2024-03-02T03:30:22;7.10;99.90
51841;DHT22;37888;53.246;6.658;2024-03-02T03:32:48;7.60;99.90
51841;DHT22;37888;53.246;6.658;2024-03-02T03:35:14;7.70;99.90
51841;DHT22;37888;53.246;6.658;2024-03-02T03:37:40;7.40;99.90
51841;DHT22;37888;53.246;6.658;2024-03-02T03:40:06;7.70;99.90
51841;DHT22;37888;53.246;6.658;2024-03-02T03:42:38;7.40;99.90
51841;DHT22;37888;53.246;6.658;2024-03-02T03:45:05;7.40;99.90
51841;DHT22;37888;53.246;6.658;2024-03-02T03:47:31;7.40;99.90
51841;DHT22;37888;53.246;6.658;2024-03-02T03:49:56;7.50;99.90
51841;DHT22;37888;53.246;6.658;2024-03-02T03:52:22;7.60;99.90
51841;DHT22;37888;53.246;6.658;2024-03-02T03:54:47;7.40;99.90
51841;DHT22;37888;53.246;6.658;2024-03-02T03:57:13;7.40;99.90
51841;DHT22;37888;53.246;6.658;2024-03-02T03:59:39;7.60;99.90
51841;DHT22;37888;53.246;6.658;2024-03-02T04:02:04;7.50;99.90
51841;DHT22;37888;53.246;6.658;2024-03-02T04:04:30;7.50;99.90
51841;DHT22;37888;53.246;6.658;2024-03-02T04:06:55;7.40;99.90
51841;DHT22;37888;53.246;6.658;2024-03-02T04:09:21;7.50;99.90
51841;DHT22;37888;53.246;6.658;2024-03-02T04:11:47;7.30;99.90
51841;DHT22;37888;53.246;6.658;2024-03-02T04:14:12;7.30;99.90
51841;DHT22;37888;53.246;6.658;2024-03-02T04:16:38;7.20;99.90
51841;DHT22;37888;53.246;6.658;2024-03-02T04:19:04;7.20;99.90
51841;DHT22;37888;53.246;6.658;2024-03-02T04:21:30;7.20;99.90
51841;DHT22;37888;53.246;6.658;2024-03-02T04:23:56;7.20;99.90
51841;DHT22;37888;53.246;6.658;2024-03-02T04:26:24;7.30;99.90
51841;DHT22;37888;53.246;6.658;2024-03-02T04:28:51;7.20;99.90
51841;DHT22;37888;53.246;6.658;2024-03-02T04:31:16;7.20;99.90
51841;DHT22;37888;53.246;6.658;2024-03-02T04:33:42;7.10;99.90
51841;DHT22;37888;53.246;6.658;2024-03-02T04:36:08;7.00;99.90
51841;DHT22;37888;53.246;6.658;2024-03-02T04:38:37;7.20;99.90
51841;DHT22;37888;53.246;6.658;2024-03-02T04:41:03;7.20;99.90
51841;DHT22;37888;53.246;6.658;2024-03-02T04:43:29;7.10;99.90
51841;DHT22;37888;53.246;6.658;2024-03-02T04:45:54;7.20;99.90
51841;DHT22;37888;53.246;6.658;2024-03-02T04:48:20;7.10;99.90
51841;DHT22;37888;53.246;6.658;2024-03-02T04:50:47;7.00;99.90
51841;DHT22;37888;53.246;6.658;2024-03-02T04:53:13;7.40;99.90
51841;DHT22;37888;53.246;6.658;2024-03-02T04:55:39;7.20;99.90
51841;DHT22;37888;53.246;6.658;2024-03-02T04:58:04;7.30;99.90
51841;DHT22;37888;53.246;6.658;2024-03-02T05:00:30;7.30;99.90
51841;DHT22;37888;53.246;6.658;2024-03-02T05:02:56;7.20;99.90
51841;DHT22;37888;53.246;6.658;2024-03-02T05:05:21;7.30;99.90
51841;DHT22;37888;53.246;6.658;2024-03-02T05:07:47;7.20;99.90
51841;DHT22;37888;53.246;6.658;2024-03-02T05:10:12;7.40;99.90
51841;DHT22;37888;53.246;6.658;2024-03-02T05:12:38;7.10;99.90
51841;DHT22;37888;53.246;6.658;2024-03-02T05:15:10;7.10;99.90
51841;DHT22;37888;53.246;6.658;2024-03-02T05:17:36;7.00;99.90
51841;DHT22;37888;53.246;6.658;2024-03-02T05:20:06;7.20;99.90
51841;DHT22;37888;53.246;6.658;2024-03-02T05:22:33;6.90;99.90
51841;DHT22;37888;53.246;6.658;2024-03-02T05:24:59;6.90;99.90
51841;DHT22;37888;53.246;6.658;2024-03-02T05:27:26;7.30;99.90
51841;DHT22;37888;53.246;6.658;2024-03-02T05:29:52;7.10;99.90
51841;DHT22;37888;53.246;6.658;2024-03-02T05:32:17;7.30;99.90
51841;DHT22;37888;53.246;6.658;2024-03-02T05:34:43;7.20;99.90
51841;DHT22;37888;53.246;6.658;2024-03-02T05:37:09;7.20;99.90
51841;DHT22;37888;53.246;6.658;2024-03-02T05:39:34;6.90;99.90
51841;DHT22;37888;53.246;6.658;2024-03-02T05:42:00;5.80;99.90
51841;DHT22;37888;53.246;6.658;2024-03-02T05:44:25;7.00;99.90
51841;DHT22;37888;53.246;6.658;2024-03-02T05:46:51;7.00;99.90
51841;DHT22;37888;53.246;6.658;2024-03-02T05:49:17;6.90;99.90
51841;DHT22;37888;53.246;6.658;2024-03-02T05:51:42;7.00;99.90
51841;DHT22;37888;53.246;6.658;2024-03-02T05:54:08;7.10;99.90
51841;DHT22;37888;53.246;6.658;2024-03-02T05:56:34;7.00;99.90
51841;DHT22;37888;53.246;6.658;2024-03-02T05:59:00;7.10;99.90
51841;DHT22;37888;53.246;6.658;2024-03-02T06:01:44;7.00;99.90
51841;DHT22;37888;53.246;6.658;2024-03-02T06:04:10;7.10;99.90
51841;DHT22;37888;53.246;6.658;2024-03-02T06:06:39;7.10;99.90
51841;DHT22;37888;53.246;6.658;2024-03-02T06:09:04;7.10;99.90
51841;DHT22;37888;53.246;6.658;2024-03-02T06:11:36;7.30;99.90
51841;DHT22;37888;53.246;6.658;2024-03-02T06:14:02;7.00;99.90
51841;DHT22;37888;53.246;6.658;2024-03-02T06:16:28;7.10;99.90
51841;DHT22;37888;53.246;6.658;2024-03-02T06:18:53;7.30;99.90
51841;DHT22;37888;53.246;6.658;2024-03-02T06:21:19;7.10;99.90
51841;DHT22;37888;53.246;6.658;2024-03-02T06:23:45;7.10;99.90
51841;DHT22;37888;53.246;6.658;2024-03-02T06:26:11;7.20;99.90
51841;DHT22;37888;53.246;6.658;2024-03-02T06:28:37;7.10;99.90
51841;DHT22;37888;53.246;6.658;2024-03-02T06:31:03;7.10;99.90
51841;DHT22;37888;53.246;6.658;2024-03-02T06:33:29;7.00;99.90
51841;DHT22;37888;53.246;6.658;2024-03-02T06:35:55;7.00;99.90
51841;DHT22;37888;53.246;6.658;2024-03-02T06:38:20;7.00;99.90
51841;DHT22;37888;53.246;6.658;2024-03-02T06:40:46;7.00;99.90
51841;DHT22;37888;53.246;6.658;2024-03-02T06:43:11;7.00;99.90
51841;DHT22;37888;53.246;6.658;2024-03-02T06:45:37;7.00;99.90
51841;DHT22;37888;53.246;6.658;2024-03-02T06:48:03;7.00;99.90
51841;DHT22;37888;53.246;6.658;2024-03-02T06:50:28;7.00;99.90
51841;DHT22;37888;53.246;6.658;2024-03-02T06:52:54;7.00;99.90
51841;DHT22;37888;53.246;6.658;2024-03-02T06:55:21;7.10;99.90
51841;DHT22;37888;53.246;6.658;2024-03-02T06:57:47;7.10;99.90
51841;DHT22;37888;53.246;6.658;2024-03-02T07:00:13;7.20;99.90
51841;DHT22;37888;53.246;6.658;2024-03-02T07:02:39;7.30;99.90
51841;DHT22;37888;53.246;6.658;2024-03-02T07:05:06;7.40;99.90
51841;DHT22;37888;53.246;6.658;2024-03-02T07:07:32;7.50;99.90
51841;DHT22;37888;53.246;6.658;2024-03-02T07:09:58;7.70;99.90
51841;DHT22;37888;53.246;6.658;2024-03-02T07:12:24;7.90;99.90
51841;DHT22;37888;53.246;6.658;2024-03-02T07:14:50;8.10;99.90
51841;DHT22;37888;53.246;6.658;2024-03-02T07:17:27;8.00;99.90
51841;DHT22;37888;53.246;6.658;2024-03-02T07:19:53;8.30;99.90
51841;DHT22;37888;53.246;6.658;2024-03-02T07:22:19;8.50;99.90
51841;DHT22;37888;53.246;6.658;2024-03-02T07:24:44;8.50;99.90
51841;DHT22;37888;53.246;6.658;2024-03-02T07:27:13;8.50;99.90
51841;DHT22;37888;53.246;6.658;2024-03-02T07:29:40;8.60;99.90
51841;DHT22;37888;53.246;6.658;2024-03-02T07:32:06;8.50;99.90
51841;DHT22;37888;53.246;6.658;2024-03-02T07:34:31;8.40;99.90
51841;DHT22;37888;53.246;6.658;2024-03-02T07:36:57;8.30;99.90
51841;DHT22;37888;53.246;6.658;2024-03-02T07:39:23;8.20;99.90
51841;DHT22;37888;53.246;6.658;2024-03-02T07:41:49;8.10;99.90
51841;DHT22;37888;53.246;6.658;2024-03-02T07:44:14;8.10;99.90
51841;DHT22;37888;53.246;6.658;2024-03-02T07:46:43;8.00;99.90
51841;DHT22;37888;53.246;6.658;2024-03-02T07:49:09;8.00;99.90
51841;DHT22;37888;53.246;6.658;2024-03-02T07:51:35;8.20;99.90
51841;DHT22;37888;53.246;6.658;2024-03-02T07:54:00;9.00;99.90
51841;DHT22;37888;53.246;6.658;2024-03-02T07:56:26;10.10;99.90
51841;DHT22;37888;53.246;6.658;2024-03-02T07:58:51;11.00;94.80
51841;DHT22;37888;53.246;6.658;2024-03-02T08:01:17;11.70;90.50
51841;DHT22;37888;53.246;6.658;2024-03-02T08:03:43;12.20;82.10
51841;DHT22;37888;53.246;6.658;2024-03-02T08:06:13;12.60;74.60
51841;DHT22;37888;53.246;6.658;2024-03-02T08:08:40;13.10;70.40
51841;DHT22;37888;53.246;6.658;2024-03-02T08:11:06;13.50;70.00
51841;DHT22;37888;53.246;6.658;2024-03-02T08:13:31;13.90;65.70
51841;DHT22;37888;53.246;6.658;2024-03-02T08:15:57;14.20;62.80
51841;DHT22;37888;53.246;6.658;2024-03-02T08:18:23;14.40;62.70
51841;DHT22;37888;53.246;6.658;2024-03-02T08:20:48;14.50;57.10
51841;DHT22;37888;53.246;6.658;2024-03-02T08:23:14;14.60;56.60
51841;DHT22;37888;53.246;6.658;2024-03-02T08:25:40;14.70;58.50
51841;DHT22;37888;53.246;6.658;2024-03-02T08:28:05;14.70;55.50
51841;DHT22;37888;53.246;6.658;2024-03-02T08:30:31;14.30;51.70
51841;DHT22;37888;53.246;6.658;2024-03-02T08:32:57;14.20;57.60
51841;DHT22;37888;53.246;6.658;2024-03-02T08:35:22;13.80;53.10
51841;DHT22;37888;53.246;6.658;2024-03-02T08:37:48;13.50;55.60
51841;DHT22;37888;53.246;6.658;2024-03-02T08:40:14;13.10;57.50
51841;DHT22;37888;53.246;6.658;2024-03-02T08:42:40;12.60;55.80
51841;DHT22;37888;53.246;6.658;2024-03-02T08:45:06;12.40;59.30
51841;DHT22;37888;53.246;6.658;2024-03-02T08:47:32;12.10;59.20
51841;DHT22;37888;53.246;6.658;2024-03-02T08:50:01;11.90;66.70
51841;DHT22;37888;53.246;6.658;2024-03-02T08:52:26;11.60;64.50
51841;DHT22;37888;53.246;6.658;2024-03-02T08:54:52;11.40;67.20
51841;DHT22;37888;53.246;6.658;2024-03-02T08:57:18;11.30;70.00
51841;DHT22;37888;53.246;6.658;2024-03-02T08:59:43;11.20;71.90
51841;DHT22;37888;53.246;6.658;2024-03-02T09:02:09;11.10;69.00
51841;DHT22;37888;53.246;6.658;2024-03-02T09:04:35;11.20;70.20
51841;DHT22;37888;53.246;6.658;2024-03-02T09:07:01;11.40;68.00
51841;DHT22;37888;53.246;6.658;2024-03-02T09:09:26;11.50;68.40
51841;DHT22;37888;53.246;6.658;2024-03-02T09:11:52;11.40;69.20
51841;DHT22;37888;53.246;6.658;2024-03-02T09:14:20;11.20;74.70
51841;DHT22;37888;53.246;6.658;2024-03-02T09:16:46;11.00;72.20
51841;DHT22;37888;53.246;6.658;2024-03-02T09:19:12;10.90;71.50
51841;DHT22;37888;53.246;6.658;2024-03-02T09:21:37;10.90;70.40
51841;DHT22;37888;53.246;6.658;2024-03-02T09:24:03;10.90;72.10
51841;DHT22;37888;53.246;6.658;2024-03-02T09:26:29;11.00;80.90
51841;DHT22;37888;53.246;6.658;2024-03-02T09:28:54;10.90;80.70
51841;DHT22;37888;53.246;6.658;2024-03-02T09:31:21;11.00;82.70
51841;DHT22;37888;53.246;6.658;2024-03-02T09:33:47;11.10;78.70
51841;DHT22;37888;53.246;6.658;2024-03-02T09:36:22;11.00;91.30
51841;DHT22;37888;53.246;6.658;2024-03-02T09:38:47;10.90;84.20
51841;DHT22;37888;53.246;6.658;2024-03-02T09:41:14;10.90;84.70
51841;DHT22;37888;53.246;6.658;2024-03-02T09:43:39;11.10;77.90
51841;DHT22;37888;53.246;6.658;2024-03-02T09:46:05;11.30;76.00
51841;DHT22;37888;53.246;6.658;2024-03-02T09:48:32;11.30;71.80
51841;DHT22;37888;53.246;6.658;2024-03-02T09:51:00;11.30;79.60
51841;DHT22;37888;53.246;6.658;2024-03-02T09:53:29;11.40;80.30
51841;DHT22;37888;53.246;6.658;2024-03-02T09:55:56;11.50;76.10
51841;DHT22;37888;53.246;6.658;2024-03-02T09:58:21;11.50;77.90
51841;DHT22;37888;53.246;6.658;2024-03-02T10:00:47;11.30;76.00
51841;DHT22;37888;53.246;6.658;2024-03-02T10:03:13;11.40;76.20
51841;DHT22;37888;53.246;6.658;2024-03-02T10:05:38;11.40;80.00
51841;DHT22;37888;53.246;6.658;2024-03-02T10:08:04;11.30;79.20
51841;DHT22;37888;53.246;6.658;2024-03-02T10:10:39;11.10;72.20
51841;DHT22;37888;53.246;6.658;2024-03-02T10:13:06;11.10;74.00
51841;DHT22;37888;53.246;6.658;2024-03-02T10:15:32;11.00;68.20
51841;DHT22;37888;53.246;6.658;2024-03-02T10:17:58;11.00;74.10
51841;DHT22;37888;53.246;6.658;2024-03-02T10:20:25;11.10;75.50
51841;DHT22;37888;53.246;6.658;2024-03-02T10:22:51;11.40;74.30
51841;DHT22;37888;53.246;6.658;2024-03-02T10:25:32;11.50;79.90
51841;DHT22;37888;53.246;6.658;2024-03-02T10:27:59;11.80;82.80
51841;DHT22;37888;53.246;6.658;2024-03-02T10:30:27;11.90;68.20
51841;DHT22;37888;53.246;6.658;2024-03-02T10:32:53;11.80;74.10
51841;DHT22;37888;53.246;6.658;2024-03-02T10:35:20;11.70;72.20
51841;DHT22;37888;53.246;6.658;2024-03-02T10:37:47;11.70;71.90
51841;DHT22;37888;53.246;6.658;2024-03-02T10:40:12;11.70;74.00
51841;DHT22;37888;53.246;6.658;2024-03-02T10:42:38;11.50;73.40
51841;DHT22;37888;53.246;6.658;2024-03-02T10:45:07;11.60;74.10
51841;DHT22;37888;53.246;6.658;2024-03-02T10:47:34;11.80;72.90
51841;DHT22;37888;53.246;6.658;2024-03-02T10:50:01;12.00;67.40
51841;DHT22;37888;53.246;6.658;2024-03-02T10:52:29;12.10;67.30
51841;DHT22;37888;53.246;6.658;2024-03-02T10:54:55;12.10;65.20
51841;DHT22;37888;53.246;6.658;2024-03-02T10:57:21;12.10;72.70
51841;DHT22;37888;53.246;6.658;2024-03-02T10:59:56;12.20;69.10
51841;DHT22;37888;53.246;6.658;2024-03-02T11:02:22;12.30;69.50
51841;DHT22;37888;53.246;6.658;2024-03-02T11:04:49;12.30;62.90
51841;DHT22;37888;53.246;6.658;2024-03-02T11:07:16;12.60;76.90
51841;DHT22;37888;53.246;6.658;2024-03-02T11:09:45;12.50;78.70
51841;DHT22;37888;53.246;6.658;2024-03-02T11:12:12;12.60;68.00
51841;DHT22;37888;53.246;6.658;2024-03-02T11:14:42;12.60;63.90
51841;DHT22;37888;53.246;6.658;2024-03-02T11:17:11;12.80;75.60
51841;DHT22;37888;53.246;6.658;2024-03-02T11:19:38;12.80;65.80
51841;DHT22;37888;53.246;6.658;2024-03-02T11:22:04;12.80;68.90
51841;DHT22;37888;53.246;6.658;2024-03-02T11:24:31;12.80;66.50
51841;DHT22;37888;53.246;6.658;2024-03-02T11:27:03;12.90;65.70
51841;DHT22;37888;53.246;6.658;2024-03-02T11:32:04;12.90;60.40
51841;DHT22;37888;53.246;6.658;2024-03-02T11:34:30;12.80;56.00
51841;DHT22;37888;53.246;6.658;2024-03-02T11:36:57;12.70;60.50
51841;DHT22;37888;53.246;6.658;2024-03-02T11:39:22;12.70;59.70
51841;DHT22;37888;53.246;6.658;2024-03-02T11:41:50;12.80;71.10
51841;DHT22;37888;53.246;6.658;2024-03-02T11:44:16;12.70;60.80
51841;DHT22;37888;53.246;6.658;2024-03-02T11:46:41;12.70;62.40
51841;DHT22;37888;53.246;6.658;2024-03-02T11:49:10;12.60;59.50
51841;DHT22;37888;53.246;6.658;2024-03-02T11:51:39;12.60;67.70
51841;DHT22;37888;53.246;6.658;2024-03-02T11:54:15;12.60;67.50
51841;DHT22;37888;53.246;6.658;2024-03-02T11:56:41;12.70;68.30
51841;DHT22;37888;53.246;6.658;2024-03-02T11:59:06;12.70;69.00
51841;DHT22;37888;53.246;6.658;2024-03-02T12:01:34;12.80;64.80
51841;DHT22;37888;53.246;6.658;2024-03-02T12:04:00;12.80;71.00
51841;DHT22;37888;53.246;6.658;2024-03-02T12:06:26;12.80;63.80
51841;DHT22;37888;53.246;6.658;2024-03-02T12:08:52;12.90;63.10
51841;DHT22;37888;53.246;6.658;2024-03-02T12:11:18;12.80;59.30
51841;DHT22;37888;53.246;6.658;2024-03-02T12:13:52;12.80;58.40
51841;DHT22;37888;53.246;6.658;2024-03-02T12:16:24;12.90;62.10
51841;DHT22;37888;53.246;6.658;2024-03-02T12:18:49;13.00;58.50
51841;DHT22;37888;53.246;6.658;2024-03-02T12:21:15;13.20;60.10
51841;DHT22;37888;53.246;6.658;2024-03-02T12:23:40;13.20;57.80
51841;DHT22;37888;53.246;6.658;2024-03-02T12:26:06;13.30;54.90
51841;DHT22;37888;53.246;6.658;2024-03-02T12:28:32;13.40;60.20
51841;DHT22;37888;53.246;6.658;2024-03-02T12:30:59;13.40;52.70
51841;DHT22;37888;53.246;6.658;2024-03-02T12:33:24;13.40;56.50
51841;DHT22;37888;53.246;6.658;2024-03-02T12:35:50;13.40;58.50
51841;DHT22;37888;53.246;6.658;2024-03-02T12:38:15;13.30;55.00
51841;DHT22;37888;53.246;6.658;2024-03-02T12:40:41;13.40;51.60
51841;DHT22;37888;53.246;6.658;2024-03-02T12:43:07;13.40;52.10
51841;DHT22;37888;53.246;6.658;2024-03-02T12:45:33;13.40;47.80
51841;DHT22;37888;53.246;6.658;2024-03-02T12:47:59;13.40;53.80
51841;DHT22;37888;53.246;6.658;2024-03-02T12:50:25;13.40;52.80
51841;DHT22;37888;53.246;6.658;2024-03-02T12:52:54;13.40;51.90
51841;DHT22;37888;53.246;6.658;2024-03-02T12:55:23;13.40;53.60
51841;DHT22;37888;53.246;6.658;2024-03-02T12:57:50;13.60;54.40
51841;DHT22;37888;53.246;6.658;2024-03-02T13:00:17;13.70;59.20
51841;DHT22;37888;53.246;6.658;2024-03-02T13:02:45;13.60;48.00
51841;DHT22;37888;53.246;6.658;2024-03-02T13:05:11;13.70;54.20
51841;DHT22;37888;53.246;6.658;2024-03-02T13:07:37;13.70;53.60
51841;DHT22;37888;53.246;6.658;2024-03-02T13:10:03;13.50;56.90
51841;DHT22;37888;53.246;6.658;2024-03-02T13:12:29;13.50;54.30
51841;DHT22;37888;53.246;6.658;2024-03-02T13:14:57;13.40;52.50
51841;DHT22;37888;53.246;6.658;2024-03-02T13:17:23;13.40;51.80
51841;DHT22;37888;53.246;6.658;2024-03-02T13:19:55;13.50;58.80
51841;DHT22;37888;53.246;6.658;2024-03-02T13:22:21;13.50;55.30
51841;DHT22;37888;53.246;6.658;2024-03-02T13:24:47;13.50;55.70
51841;DHT22;37888;53.246;6.658;2024-03-02T13:27:13;13.40;54.50
51841;DHT22;37888;53.246;6.658;2024-03-02T13:29:39;13.30;51.00
51841;DHT22;37888;53.246;6.658;2024-03-02T13:32:05;13.30;55.90
51841;DHT22;37888;53.246;6.658;2024-03-02T13:34:30;13.30;54.90
51841;DHT22;37888;53.246;6.658;2024-03-02T13:36:56;13.20;63.50
51841;DHT22;37888;53.246;6.658;2024-03-02T13:39:21;13.20;63.30
51841;DHT22;37888;53.246;6.658;2024-03-02T13:41:48;13.10;58.10
51841;DHT22;37888;53.246;6.658;2024-03-02T13:44:21;13.20;59.70
51841;DHT22;37888;53.246;6.658;2024-03-02T13:46:47;13.20;59.00
51841;DHT22;37888;53.246;6.658;2024-03-02T13:49:14;13.30;61.10
51841;DHT22;37888;53.246;6.658;2024-03-02T13:51:39;13.30;61.60
51841;DHT22;37888;53.246;6.658;2024-03-02T13:54:05;13.20;50.70
51841;DHT22;37888;53.246;6.658;2024-03-02T13:56:31;13.10;50.20
51841;DHT22;37888;53.246;6.658;2024-03-02T13:58:58;13.00;54.40
51841;DHT22;37888;53.246;6.658;2024-03-02T14:01:24;13.00;57.60
51841;DHT22;37888;53.246;6.658;2024-03-02T14:03:50;12.90;56.50
51841;DHT22;37888;53.246;6.658;2024-03-02T14:06:16;12.80;50.60
51841;DHT22;37888;53.246;6.658;2024-03-02T14:08:42;12.70;52.70
51841;DHT22;37888;53.246;6.658;2024-03-02T14:11:10;12.70;58.10
51841;DHT22;37888;53.246;6.658;2024-03-02T14:13:41;12.70;57.60
51841;DHT22;37888;53.246;6.658;2024-03-02T14:16:06;12.60;57.50
51841;DHT22;37888;53.246;6.658;2024-03-02T14:18:32;13.20;57.80
51841;DHT22;37888;53.246;6.658;2024-03-02T14:20:57;12.60;54.80
51841;DHT22;37888;53.246;6.658;2024-03-02T14:23:23;12.60;57.90
51841;DHT22;37888;53.246;6.658;2024-03-02T14:25:51;12.60;56.80
51841;DHT22;37888;53.246;6.658;2024-03-02T14:28:16;12.60;56.10
51841;DHT22;37888;53.246;6.658;2024-03-02T14:30:43;12.50;60.30
51841;DHT22;37888;53.246;6.658;2024-03-02T14:33:09;12.50;56.70
51841;DHT22;37888;53.246;6.658;2024-03-02T14:35:36;12.40;51.20
51841;DHT22;37888;53.246;6.658;2024-03-02T14:38:01;12.50;54.00
51841;DHT22;37888;53.246;6.658;2024-03-02T14:40:27;12.40;55.40
51841;DHT22;37888;53.246;6.658;2024-03-02T14:42:54;12.40;56.10
51841;DHT22;37888;53.246;6.658;2024-03-02T14:45:20;12.40;53.10
51841;DHT22;37888;53.246;6.658;2024-03-02T14:47:45;12.30;53.60
51841;DHT22;37888;53.246;6.658;2024-03-02T14:50:11;12.30;54.10
51841;DHT22;37888;53.246;6.658;2024-03-02T14:52:37;12.30;56.50
51841;DHT22;37888;53.246;6.658;2024-03-02T14:55:03;12.20;55.20
51841;DHT22;37888;53.246;6.658;2024-03-02T14:57:29;12.20;53.70
51841;DHT22;37888;53.246;6.658;2024-03-02T14:59:55;12.20;56.10
51841;DHT22;37888;53.246;6.658;2024-03-02T15:02:21;12.10;57.50
51841;DHT22;37888;53.246;6.658;2024-03-02T15:04:47;12.10;57.00
51841;DHT22;37888;53.246;6.658;2024-03-02T15:07:14;12.10;54.90
51841;DHT22;37888;53.246;6.658;2024-03-02T15:09:40;12.00;57.00
51841;DHT22;37888;53.246;6.658;2024-03-02T15:12:06;12.10;60.80
51841;DHT22;37888;53.246;6.658;2024-03-02T15:14:35;12.10;58.20
51841;DHT22;37888;53.246;6.658;2024-03-02T15:17:00;12.10;56.70
51841;DHT22;37888;53.246;6.658;2024-03-02T15:19:26;12.10;60.20
51841;DHT22;37888;53.246;6.658;2024-03-02T15:21:52;12.10;59.00
51841;DHT22;37888;53.246;6.658;2024-03-02T15:24:17;12.10;56.10
51841;DHT22;37888;53.246;6.658;2024-03-02T15:26:43;12.10;53.80
51841;DHT22;37888;53.246;6.658;2024-03-02T15:29:08;12.10;53.50
51841;DHT22;37888;53.246;6.658;2024-03-02T15:31:34;12.10;53.80
51841;DHT22;37888;53.246;6.658;2024-03-02T15:34:00;12.00;56.20
51841;DHT22;37888;53.246;6.658;2024-03-02T15:36:25;11.90;54.60
51841;DHT22;37888;53.246;6.658;2024-03-02T15:38:51;11.90;57.20
51841;DHT22;37888;53.246;6.658;2024-03-02T15:41:17;11.80;56.50
51841;DHT22;37888;53.246;6.658;2024-03-02T15:43:42;11.80;55.80
51841;DHT22;37888;53.246;6.658;2024-03-02T15:46:08;11.70;58.10